createdAt,value
2018-07-14T00:02:12.052Z,8.10
2018-07-14T00:04:40.521Z,6.93
2018-07-14T00:07:08.964Z,7.77
2018-07-14T00:09:37.388Z,8.23
2018-07-14T00:12:05.860Z,5.33
2018-07-14T00:14:34.316Z,5.73
2018-07-14T00:17:02.744Z,7.40
2018-07-14T00:19:31.193Z,6.93
2018-07-14T00:21:59.624Z,5.80
2018-07-14T00:24:27.854Z,6.37
2018-07-14T00:26:56.212Z,8.43
2018-07-14T00:29:24.644Z,6.17
2018-07-14T00:31:53.057Z,9.27
2018-07-14T00:34:21.541Z,5.93
2018-07-14T00:36:49.972Z,8.03
2018-07-14T00:39:18.505Z,6.37
2018-07-14T00:41:46.964Z,7.40
2018-07-14T00:44:15.468Z,7.73
2018-07-14T00:46:43.916Z,5.93
2018-07-14T00:49:12.360Z,7.07
2018-07-14T00:51:40.814Z,8.00
2018-07-14T00:54:09.267Z,7.87
2018-07-14T00:56:38.872Z,7.90
2018-07-14T00:59:07.716Z,8.23
2018-07-14T01:01:36.386Z,9.83
2018-07-14T01:04:04.920Z,7.97
2018-07-14T01:06:33.352Z,10.50
2018-07-14T01:09:01.805Z,10.77
2018-07-14T01:11:30.249Z,8.43
2018-07-14T01:13:58.692Z,9.40
2018-07-14T01:16:27.188Z,8.03
2018-07-14T01:18:55.633Z,10.63
2018-07-14T01:21:24.057Z,7.27
2018-07-14T01:23:52.571Z,7.43
2018-07-14T01:26:21.012Z,7.97
2018-07-14T01:28:49.417Z,8.27
2018-07-14T01:31:17.917Z,10.70
2018-07-14T01:33:46.328Z,8.07
2018-07-14T01:36:14.781Z,6.80
2018-07-14T01:38:43.212Z,8.07
2018-07-14T01:41:11.676Z,9.47
2018-07-14T01:43:40.116Z,8.33
2018-07-14T01:46:08.556Z,11.23
2018-07-14T01:48:36.978Z,8.73
2018-07-14T01:51:05.441Z,10.00
2018-07-14T01:53:33.869Z,9.27
2018-07-14T01:56:02.305Z,12.00
2018-07-14T01:58:30.733Z,8.00
2018-07-14T02:00:59.328Z,9.87
2018-07-14T02:03:27.656Z,8.53
2018-07-14T02:05:56.335Z,8.80
2018-07-14T02:08:24.756Z,10.33
2018-07-14T02:10:53.791Z,11.53
2018-07-14T02:13:22.297Z,8.93
2018-07-14T02:15:50.860Z,8.53
2018-07-14T02:18:19.549Z,11.70
2018-07-14T02:20:48.280Z,11.23
2018-07-14T02:23:16.921Z,10.13
2018-07-14T02:25:45.468Z,10.73
2018-07-14T02:28:13.884Z,9.47
2018-07-14T02:30:42.374Z,12.63
2018-07-14T02:33:10.815Z,13.63
2018-07-14T02:35:39.277Z,11.43
2018-07-14T02:38:07.413Z,10.07
2018-07-14T02:40:35.844Z,11.80
2018-07-14T02:43:04.328Z,9.83
2018-07-14T02:45:32.761Z,13.83
2018-07-14T02:48:01.321Z,11.67
2018-07-14T02:50:29.793Z,14.40
2018-07-14T02:52:58.572Z,11.00
2018-07-14T02:55:27.036Z,15.63
2018-07-14T02:57:55.461Z,12.43
2018-07-14T03:00:24.169Z,12.10
2018-07-14T03:02:52.625Z,11.23
2018-07-14T03:05:21.301Z,14.20
2018-07-14T03:07:49.816Z,11.40
2018-07-14T03:10:18.253Z,16.00
2018-07-14T03:12:46.742Z,13.47
2018-07-14T03:15:15.141Z,13.07
2018-07-14T03:17:43.619Z,11.03
2018-07-14T03:20:12.066Z,16.17
2018-07-14T03:22:40.533Z,15.20
2018-07-14T03:25:08.977Z,12.07
2018-07-14T03:27:37.408Z,16.13
2018-07-14T03:30:05.836Z,11.80
2018-07-14T03:32:34.301Z,14.30
2018-07-14T03:35:02.761Z,12.93
2018-07-14T03:37:31.232Z,13.33
2018-07-14T03:39:59.664Z,17.77
2018-07-14T03:42:28.124Z,14.40
2018-07-14T03:44:56.552Z,11.53
2018-07-14T03:47:25.043Z,15.00
2018-07-14T03:49:53.469Z,16.13
2018-07-14T03:52:21.916Z,14.00
2018-07-14T03:54:50.438Z,17.37
2018-07-14T03:57:18.872Z,16.60
2018-07-14T03:59:47.288Z,15.57
2018-07-14T04:02:15.740Z,12.93
2018-07-14T04:04:44.160Z,15.43
2018-07-14T04:07:12.604Z,15.27
2018-07-14T04:09:41.064Z,13.73
2018-07-14T04:12:09.637Z,15.30
2018-07-14T04:14:38.059Z,11.87
2018-07-14T04:17:06.549Z,14.03
2018-07-14T04:19:34.966Z,13.17
2018-07-14T04:22:03.418Z,14.80
2018-07-14T04:24:31.849Z,12.17
2018-07-14T04:27:00.281Z,11.57
2018-07-14T04:29:28.693Z,11.80
2018-07-14T04:31:57.200Z,13.43
2018-07-14T04:34:25.584Z,12.90
2018-07-14T04:36:54.039Z,11.23
2018-07-14T04:39:22.477Z,11.57
2018-07-14T04:41:50.920Z,13.17
2018-07-14T04:44:19.416Z,13.00
2018-07-14T04:46:47.869Z,10.23
2018-07-14T04:49:16.286Z,11.33
2018-07-14T04:51:45.184Z,9.97
2018-07-14T04:54:13.594Z,10.03
2018-07-14T04:56:42.041Z,10.00
2018-07-14T04:59:10.483Z,10.97
2018-07-14T05:01:39.797Z,12.63
2018-07-14T05:04:08.317Z,12.40
2018-07-14T05:06:36.751Z,12.63
2018-07-14T05:09:06.002Z,10.23
2018-07-14T05:11:34.444Z,11.90
2018-07-14T05:14:02.880Z,11.37
2018-07-14T05:16:31.327Z,12.63
2018-07-14T05:18:59.761Z,10.87
2018-07-14T05:21:28.295Z,12.07
2018-07-14T05:23:56.728Z,10.07
2018-07-14T05:26:25.159Z,9.40
2018-07-14T05:28:53.599Z,10.70
2018-07-14T05:31:22.035Z,10.37
2018-07-14T05:33:50.480Z,11.37
2018-07-14T05:36:18.896Z,11.27
2018-07-14T05:38:47.565Z,10.20
2018-07-14T05:41:16.069Z,12.03
2018-07-14T05:43:44.649Z,13.23
2018-07-14T05:46:13.289Z,12.63
2018-07-14T05:48:42.016Z,9.60
2018-07-14T05:51:10.517Z,10.83
2018-07-14T05:53:38.969Z,13.20
2018-07-14T05:56:07.417Z,13.37
2018-07-14T05:58:35.865Z,13.40
2018-07-14T06:01:04.368Z,11.40
2018-07-14T06:03:33.100Z,14.03
2018-07-14T06:06:01.525Z,9.77
2018-07-14T06:08:29.970Z,10.57
2018-07-14T06:10:58.420Z,10.97
2018-07-14T06:13:26.909Z,12.00
2018-07-14T06:15:55.380Z,13.43
2018-07-14T06:18:23.841Z,12.50
2018-07-14T06:20:52.280Z,12.40
2018-07-14T06:23:20.756Z,12.20
2018-07-14T06:25:49.238Z,17.07
2018-07-14T06:28:17.675Z,14.13
2018-07-14T06:30:46.133Z,11.43
2018-07-14T06:33:14.612Z,12.27
2018-07-14T06:35:43.122Z,13.20
2018-07-14T06:38:11.593Z,12.07
2018-07-14T06:40:40.109Z,11.63
2018-07-14T06:43:08.764Z,11.57
2018-07-14T06:45:37.194Z,11.57
2018-07-14T06:48:05.616Z,13.63
2018-07-14T06:50:34.100Z,12.33
2018-07-14T06:53:02.748Z,12.07
2018-07-14T06:55:31.188Z,13.67
2018-07-14T06:57:59.612Z,14.87
2018-07-14T07:00:28.207Z,11.07
2018-07-14T07:02:56.705Z,11.87
2018-07-14T07:05:25.166Z,11.63
2018-07-14T07:07:53.601Z,13.03
2018-07-14T07:10:22.169Z,12.90
2018-07-14T07:12:50.620Z,10.93
2018-07-14T07:15:19.120Z,11.97
2018-07-14T07:17:47.586Z,12.63
2018-07-14T07:20:16.086Z,12.27
2018-07-14T07:22:44.592Z,11.60
2018-07-14T07:25:13.065Z,11.73
2018-07-14T07:27:41.518Z,12.47
2018-07-14T07:30:10.013Z,14.07
2018-07-14T07:32:38.440Z,13.63
2018-07-14T07:35:06.944Z,10.97
2018-07-14T07:37:35.369Z,14.70
2018-07-14T07:40:03.860Z,13.60
2018-07-14T07:42:32.315Z,13.53
2018-07-14T07:45:00.753Z,15.17
2018-07-14T07:47:29.180Z,15.77
2018-07-14T07:49:57.623Z,13.40
2018-07-14T07:52:26.228Z,15.33
2018-07-14T07:54:54.660Z,14.20
2018-07-14T07:57:23.110Z,15.53
2018-07-14T07:59:51.649Z,13.30
2018-07-14T08:02:20.116Z,14.33
2018-07-14T08:04:48.564Z,12.50
2018-07-14T08:07:17.104Z,15.30
2018-07-14T08:09:45.540Z,14.67
2018-07-14T08:12:13.964Z,12.43
2018-07-14T08:14:42.597Z,13.20
2018-07-14T08:17:11.027Z,13.60
2018-07-14T08:19:39.467Z,14.43
2018-07-14T08:22:08.228Z,15.83
2018-07-14T08:24:36.738Z,14.60
2018-07-14T08:27:05.584Z,13.80
2018-07-14T08:29:34.021Z,13.53
2018-07-14T08:32:02.460Z,11.43
2018-07-14T08:34:30.905Z,15.20
2018-07-14T08:36:59.338Z,13.60
2018-07-14T08:39:27.459Z,17.17
2018-07-14T08:41:55.880Z,13.83
2018-07-14T08:44:24.312Z,16.20
2018-07-14T08:46:52.797Z,15.13
2018-07-14T08:49:21.228Z,15.43
2018-07-14T08:51:49.693Z,14.77
2018-07-14T08:54:18.292Z,17.50
2018-07-14T08:56:46.749Z,18.77
2018-07-14T08:59:15.207Z,13.33
2018-07-14T09:01:43.681Z,20.63
2018-07-14T09:04:12.101Z,13.67
2018-07-14T09:06:40.568Z,14.40
2018-07-14T09:09:09.020Z,14.80
2018-07-14T09:11:37.522Z,16.17
2018-07-14T09:14:06.181Z,15.03
2018-07-14T09:16:34.671Z,20.53
2018-07-14T09:19:03.078Z,16.07
2018-07-14T09:21:31.569Z,19.90
2018-07-14T09:23:59.996Z,19.90
2018-07-14T09:26:28.548Z,17.53
2018-07-14T09:28:56.973Z,16.00
2018-07-14T09:31:25.465Z,15.57
2018-07-14T09:33:53.933Z,15.30
2018-07-14T09:36:22.372Z,15.67
2018-07-14T09:38:50.821Z,20.20
2018-07-14T09:41:19.261Z,13.43
2018-07-14T09:43:47.689Z,13.57
2018-07-14T09:46:16.138Z,15.10
2018-07-14T09:48:44.671Z,13.10
2018-07-14T09:51:13.137Z,15.53
2018-07-14T09:53:41.560Z,13.30
2018-07-14T09:56:10.029Z,15.77
2018-07-14T09:58:38.492Z,12.30
2018-07-14T10:01:07.428Z,13.87
2018-07-14T10:03:36.200Z,14.63
2018-07-14T10:06:04.790Z,13.07
2018-07-14T10:08:33.465Z,15.60
2018-07-14T10:11:02.021Z,16.03
2018-07-14T10:13:30.432Z,12.30
2018-07-14T10:15:59.204Z,13.53
2018-07-14T10:18:27.664Z,10.37
2018-07-14T10:20:56.121Z,13.07
2018-07-14T10:23:24.561Z,13.03
2018-07-14T10:25:53.268Z,14.53
2018-07-14T10:28:21.492Z,11.07
2018-07-14T10:30:49.933Z,12.07
2018-07-14T10:33:18.416Z,12.27
2018-07-14T10:35:46.857Z,13.30
2018-07-14T10:38:15.344Z,14.03
2018-07-14T10:40:43.792Z,12.63
2018-07-14T10:43:12.257Z,10.07
2018-07-14T10:45:40.722Z,15.20
2018-07-14T10:48:09.173Z,17.80
2018-07-14T10:50:37.606Z,12.70
2018-07-14T10:53:06.090Z,12.43
2018-07-14T10:55:34.512Z,12.83
2018-07-14T10:58:02.700Z,15.33
2018-07-14T11:00:31.128Z,13.13
2018-07-14T11:02:59.585Z,10.03
2018-07-14T11:05:28.005Z,8.87
2018-07-14T11:07:56.450Z,10.07
2018-07-14T11:10:24.868Z,11.80
2018-07-14T11:12:53.301Z,10.63
2018-07-14T11:15:21.732Z,13.70
2018-07-14T11:17:50.298Z,15.37
2018-07-14T11:20:18.740Z,11.87
2018-07-14T11:22:47.213Z,14.80
2018-07-14T11:25:15.642Z,10.73
2018-07-14T11:27:44.089Z,9.90
2018-07-14T11:30:12.572Z,9.73
2018-07-14T11:32:40.961Z,12.70
2018-07-14T11:35:09.404Z,16.87
2018-07-14T11:37:37.915Z,9.90
2018-07-14T11:40:06.409Z,10.47
2018-07-14T11:42:34.902Z,9.43
2018-07-14T11:45:03.421Z,9.90
2018-07-14T11:47:31.971Z,12.20
2018-07-14T11:50:00.073Z,11.67
2018-07-14T11:52:28.528Z,9.07
2018-07-14T11:54:56.952Z,9.17
2018-07-14T11:57:25.393Z,9.50
2018-07-14T11:59:53.800Z,9.40
2018-07-14T12:02:22.301Z,7.60
2018-07-14T12:04:50.799Z,10.30
2018-07-14T12:07:19.257Z,9.43
2018-07-14T12:09:47.677Z,11.73
2018-07-14T12:12:15.827Z,7.63
2018-07-14T12:14:44.254Z,7.40
2018-07-14T12:17:12.688Z,8.37
2018-07-14T12:19:41.112Z,9.60
2018-07-14T12:22:09.570Z,7.40
2018-07-14T12:24:38.025Z,8.13
2018-07-14T12:27:06.486Z,9.90
2018-07-14T12:29:34.969Z,7.30
2018-07-14T12:32:03.521Z,8.50
2018-07-14T12:34:31.972Z,9.97
2018-07-14T12:37:00.401Z,10.20
2018-07-14T12:39:28.830Z,6.83
2018-07-14T12:41:57.248Z,8.33
2018-07-14T12:44:25.766Z,10.20
2018-07-14T12:46:54.189Z,7.37
2018-07-14T12:49:22.637Z,6.63
2018-07-14T12:51:51.055Z,7.73
2018-07-14T12:54:19.489Z,5.37
2018-07-14T12:56:47.921Z,6.53
2018-07-14T12:59:16.348Z,7.93
2018-07-14T13:01:44.912Z,5.50
2018-07-14T13:04:13.433Z,6.30
2018-07-14T13:06:41.861Z,6.77
2018-07-14T13:09:10.325Z,4.50
2018-07-14T13:11:38.758Z,6.67
2018-07-14T13:14:07.197Z,6.40
2018-07-14T13:16:35.611Z,7.00
2018-07-14T13:19:04.073Z,7.97
2018-07-14T13:21:32.542Z,6.53
2018-07-14T13:24:01.002Z,4.77
2018-07-14T13:26:29.468Z,8.17
2018-07-14T13:28:58.040Z,5.77
2018-07-14T13:31:26.498Z,5.03
2018-07-14T13:33:54.930Z,5.60
2018-07-14T13:36:23.350Z,7.53
2018-07-14T13:38:51.934Z,4.00
2018-07-14T13:41:20.261Z,6.23
2018-07-14T13:43:48.704Z,3.80
2018-07-14T13:46:17.181Z,4.77
2018-07-14T13:48:45.660Z,3.50
2018-07-14T13:51:14.153Z,4.57
2018-07-14T13:53:42.635Z,5.03
2018-07-14T13:56:11.148Z,4.03
2018-07-14T13:58:39.628Z,4.23
2018-07-14T14:01:08.176Z,5.00
2018-07-14T14:03:36.629Z,3.93
2018-07-14T14:06:05.155Z,4.73
2018-07-14T14:08:33.616Z,3.70
2018-07-14T14:11:02.105Z,4.90
2018-07-14T14:13:30.580Z,2.90
2018-07-14T14:15:59.045Z,4.10
2018-07-14T14:18:27.476Z,4.03
2018-07-14T14:20:55.917Z,4.87
2018-07-14T14:23:24.415Z,9.20
2018-07-14T14:25:52.996Z,5.87
2018-07-14T14:28:21.417Z,3.90
2018-07-14T14:30:49.856Z,3.53
2018-07-14T14:33:18.280Z,3.53
2018-07-14T14:35:46.771Z,5.27
2018-07-14T14:38:15.392Z,4.33
2018-07-14T14:40:43.833Z,4.40
2018-07-14T14:43:12.316Z,3.03
2018-07-14T14:45:40.804Z,4.60
2018-07-14T14:48:09.223Z,3.70
2018-07-14T14:50:37.680Z,3.63
2018-07-14T14:53:06.224Z,2.90
2018-07-14T14:55:34.696Z,2.40
2018-07-14T14:58:03.169Z,3.63
2018-07-14T15:00:31.621Z,3.33
2018-07-14T15:03:00.382Z,4.03
2018-07-14T15:05:28.924Z,2.50
2018-07-14T15:07:57.348Z,2.97
2018-07-14T15:10:25.780Z,2.80
2018-07-14T15:12:54.220Z,4.20
2018-07-14T15:15:22.680Z,11.53
2018-07-14T15:17:51.156Z,4.03
2018-07-14T15:20:19.589Z,2.47
2018-07-14T15:22:48.043Z,3.47
2018-07-14T15:25:16.481Z,4.83
2018-07-14T15:27:44.968Z,3.93
2018-07-14T15:30:13.469Z,5.47
2018-07-14T15:32:41.953Z,2.57
2018-07-14T15:35:10.357Z,9.70
2018-07-14T15:37:38.788Z,2.00
2018-07-14T15:40:07.260Z,2.70
2018-07-14T15:42:35.686Z,3.73
2018-07-14T15:45:04.167Z,2.40
2018-07-14T15:47:32.589Z,3.37
2018-07-14T15:50:01.057Z,3.73
2018-07-14T15:52:29.501Z,6.13
2018-07-14T15:54:57.957Z,9.50
2018-07-14T15:57:26.377Z,2.63
2018-07-14T15:59:54.820Z,4.27
2018-07-14T16:02:23.497Z,3.90
2018-07-14T16:04:51.972Z,4.40
2018-07-14T16:07:20.465Z,3.23
2018-07-14T16:09:48.933Z,3.77
2018-07-14T16:12:17.393Z,2.50
2018-07-14T16:14:45.846Z,4.30
2018-07-14T16:17:14.317Z,5.13
2018-07-14T16:19:42.748Z,3.43
2018-07-14T16:22:11.209Z,3.70
2018-07-14T16:24:39.652Z,3.43
2018-07-14T16:27:08.119Z,3.70
2018-07-14T16:29:36.562Z,5.57
2018-07-14T16:32:05.180Z,3.93
2018-07-14T16:34:33.656Z,4.13
2018-07-14T16:37:02.161Z,3.87
2018-07-14T16:39:30.621Z,2.50
2018-07-14T16:41:59.116Z,4.07
2018-07-14T16:44:27.665Z,3.13
2018-07-14T16:46:56.157Z,3.60
2018-07-14T16:49:24.620Z,3.87
2018-07-14T16:51:53.153Z,3.83
2018-07-14T16:54:21.656Z,4.50
2018-07-14T16:56:50.173Z,4.53
2018-07-14T16:59:18.657Z,4.10
2018-07-14T17:01:47.149Z,3.10
2018-07-14T17:04:15.260Z,2.10
2018-07-14T17:06:43.798Z,3.73
2018-07-14T17:09:12.252Z,4.20
2018-07-14T17:11:40.780Z,2.73
2018-07-14T17:14:09.289Z,3.80
2018-07-14T17:16:37.682Z,3.30
2018-07-14T17:19:06.445Z,3.63
2018-07-14T17:21:34.959Z,2.57
2018-07-14T17:24:03.413Z,3.00
2018-07-14T17:26:31.880Z,2.87
2018-07-14T17:29:00.352Z,2.60
2018-07-14T17:31:28.815Z,2.50
2018-07-14T17:33:57.252Z,2.00
2018-07-14T17:36:25.704Z,2.67
2018-07-14T17:38:54.164Z,3.30
2018-07-14T17:41:22.681Z,3.10
2018-07-14T17:43:51.138Z,4.03
2018-07-14T17:46:19.610Z,4.23
2018-07-14T17:48:48.056Z,3.80
2018-07-14T17:51:16.537Z,4.73
2018-07-14T17:53:45.370Z,5.47
2018-07-14T17:56:13.820Z,2.97
2018-07-14T17:58:42.292Z,2.60
2018-07-14T18:01:10.752Z,3.27
2018-07-14T18:03:39.253Z,3.30
2018-07-14T18:06:07.692Z,5.20
2018-07-14T18:08:36.153Z,2.57
2018-07-14T18:11:04.633Z,4.20
2018-07-14T18:13:33.076Z,4.37
2018-07-14T18:16:01.514Z,4.23
2018-07-14T18:18:29.681Z,2.47
2018-07-14T18:21:00.985Z,2.40
2018-07-14T18:23:29.450Z,2.33
2018-07-14T18:25:57.971Z,3.40
2018-07-14T18:28:26.401Z,3.63
2018-07-14T18:30:54.828Z,7.97
2018-07-14T18:33:23.289Z,2.50
2018-07-14T18:35:51.772Z,2.60
2018-07-14T18:38:20.304Z,3.33
2018-07-14T18:40:48.736Z,3.43
2018-07-14T18:43:17.222Z,4.77
2018-07-14T18:45:45.709Z,3.87
2018-07-14T18:48:14.161Z,3.50
2018-07-14T18:50:42.657Z,3.40
2018-07-14T18:53:11.120Z,3.80
2018-07-14T18:55:39.561Z,2.77
2018-07-14T18:58:08.125Z,2.60
2018-07-14T19:00:36.721Z,2.97
2018-07-14T19:03:05.433Z,2.93
2018-07-14T19:05:33.900Z,3.83
2018-07-14T19:08:02.547Z,2.53
2018-07-14T19:10:31.024Z,2.47
2018-07-14T19:12:59.498Z,3.30
2018-07-14T19:15:27.961Z,3.20
2018-07-14T19:17:56.448Z,4.93
2018-07-14T19:20:24.951Z,3.83
2018-07-14T19:22:53.385Z,5.13
2018-07-14T19:25:21.845Z,4.63
2018-07-14T19:27:50.316Z,4.10
2018-07-14T19:30:18.800Z,4.73
2018-07-14T19:32:46.904Z,5.77
2018-07-14T19:35:15.340Z,3.10
2018-07-14T19:37:43.805Z,2.83
2018-07-14T19:40:12.317Z,2.70
2018-07-14T19:42:40.839Z,3.67
2018-07-14T19:45:09.256Z,2.93
2018-07-14T19:47:37.728Z,4.37
2018-07-14T19:50:06.520Z,5.57
2018-07-14T19:52:34.984Z,3.73
2018-07-14T19:55:03.140Z,3.80
2018-07-14T19:57:31.581Z,2.87
2018-07-14T20:00:00.089Z,2.60
2018-07-14T20:02:28.616Z,6.10
2018-07-14T20:04:57.068Z,5.17
2018-07-14T20:07:26.468Z,3.20
2018-07-14T20:09:54.943Z,3.37
2018-07-14T20:12:23.519Z,3.00
2018-07-14T20:14:52.012Z,4.87
2018-07-14T20:17:20.461Z,2.93
2018-07-14T20:19:48.913Z,4.47
2018-07-14T20:22:17.464Z,3.53
2018-07-14T20:24:45.922Z,3.93
2018-07-14T20:27:14.380Z,4.93
2018-07-14T20:29:42.853Z,4.93
2018-07-14T20:32:11.285Z,3.90
2018-07-14T20:34:39.735Z,2.53
2018-07-14T20:37:08.402Z,3.87
2018-07-14T20:39:36.856Z,3.07
2018-07-14T20:42:05.309Z,2.60
2018-07-14T20:44:33.532Z,3.13
2018-07-14T20:47:01.985Z,5.20
2018-07-14T20:49:30.428Z,2.53
2018-07-14T20:51:58.892Z,3.13
2018-07-14T20:54:27.344Z,2.77
2018-07-14T20:56:55.804Z,2.87
2018-07-14T20:59:24.290Z,2.73
2018-07-14T21:01:52.722Z,4.50
2018-07-14T21:04:21.676Z,3.00
2018-07-14T21:06:50.456Z,3.10
2018-07-14T21:09:18.918Z,3.40
2018-07-14T21:11:47.433Z,3.73
2018-07-14T21:14:15.921Z,4.20
2018-07-14T21:16:44.385Z,3.33
2018-07-14T21:19:12.906Z,3.23
2018-07-14T21:21:41.394Z,2.73
2018-07-14T21:24:09.857Z,4.07
2018-07-14T21:26:38.284Z,3.30
2018-07-14T21:29:06.825Z,5.73
2018-07-14T21:31:35.253Z,5.50
2018-07-14T21:34:03.809Z,7.17
2018-07-14T21:36:32.264Z,5.70
2018-07-14T21:39:00.770Z,3.30
2018-07-14T21:41:29.239Z,6.87
2018-07-14T21:43:57.858Z,5.40
2018-07-14T21:46:26.293Z,6.03
2018-07-14T21:48:54.801Z,5.17
2018-07-14T21:51:23.221Z,5.47
2018-07-14T21:53:51.705Z,6.93
2018-07-14T21:56:20.173Z,6.53
2018-07-14T21:58:48.625Z,4.93
2018-07-14T22:01:22.598Z,5.63
2018-07-14T22:03:51.100Z,5.60
2018-07-14T22:06:19.561Z,5.47
2018-07-14T22:08:48.039Z,9.33
2018-07-14T22:11:16.466Z,4.57
2018-07-14T22:13:44.929Z,3.90
2018-07-14T22:16:13.416Z,3.50
2018-07-14T22:18:41.853Z,6.53
2018-07-14T22:21:10.333Z,5.27
2018-07-14T22:23:38.774Z,3.63
2018-07-14T22:26:07.437Z,3.53
2018-07-14T22:28:35.881Z,3.97
2018-07-14T22:31:04.684Z,5.63
2018-07-14T22:33:33.107Z,3.67
2018-07-14T22:36:01.561Z,7.00
2018-07-14T22:38:30.027Z,7.07
2018-07-14T22:40:58.473Z,4.37
2018-07-14T22:43:26.905Z,8.53
2018-07-14T22:45:55.421Z,5.03
2018-07-14T22:48:30.338Z,5.33
2018-07-14T22:50:58.778Z,4.67
2018-07-14T22:53:27.232Z,5.47
2018-07-14T22:55:55.688Z,6.17
2018-07-14T22:58:24.120Z,4.73
2018-07-14T23:00:52.577Z,3.73
2018-07-14T23:03:21.013Z,3.00
2018-07-14T23:05:49.488Z,4.70
2018-07-14T23:08:17.913Z,2.67
2018-07-14T23:10:46.369Z,7.93
2018-07-14T23:13:14.792Z,4.57
2018-07-14T23:15:43.253Z,3.13
2018-07-14T23:18:11.664Z,3.83
2018-07-14T23:20:40.098Z,6.00
2018-07-14T23:23:08.626Z,4.80
2018-07-14T23:25:37.229Z,2.63
2018-07-14T23:28:06.822Z,4.47
2018-07-14T23:30:35.675Z,6.03
2018-07-14T23:33:04.129Z,3.63
2018-07-14T23:35:32.604Z,3.60
2018-07-14T23:38:01.250Z,4.03
2018-07-14T23:40:29.692Z,4.87
2018-07-14T23:42:58.124Z,5.60
2018-07-14T23:45:26.732Z,4.63
2018-07-14T23:47:55.897Z,3.97
2018-07-14T23:50:24.357Z,6.10
2018-07-14T23:52:52.988Z,3.93
2018-07-14T23:55:21.437Z,4.03
2018-07-14T23:57:49.896Z,3.13
